Aérodrome :
LOGIN :

S'inscrire | Disclaimer

   EN    FR    IT 

 










Légende :    VFR   VFR Marginal   IFR   IFR Intensif   IFR Très Intensif
Visi : 
Plafond : 
>= 8 km
>= 3000ft
5 à 8 km
1000 à 3000 ft
1500m à 5 km
500 à 1000 ft
800 à 1500m
200 à 500 ft
< 800m
< 200 ft
Symboles :   Orages  Brouillard  Fortes neiges  Fortes précipitations  Vent > 20 kt
SIGMETs :   Divers  Orages  Givrage  Turbulence  Onde Orograph.  Cendres Volcan.






- Altitude de l'aérodrome : 5600 ft
- Code IATA : SMV


LSZS - Samedan

DERNIER METAR :
  • 130920Z VRB02KT 9999 FEW012 SCT065 13/10 Q1017 RMK H TL170

METARs EXPIRÉS :
  • 130850Z VRB01KT 9999 SCT012 SCT060 12/10 Q1017 RMK G TL170
  • 130820Z VRB03KT 9999 SCT009 SCT035 11/09 Q1017 RMK F TL170
  • 130750Z 09003KT 9999 4000SW SCT007 SCT009 10/09 Q1017 RMK E TL170
  • 130720Z VRB02KT 9999 4000SW SCT007 BKN009 10/09 Q1017 RMK D TL170
  • 130650Z VRB02KT 9999 4000SW BKN007 BKN009 09/08 Q1017 RMK C TL170
  • 130620Z VRB03KT 9999 4000SW BKN007 BKN009 09/08 Q1017 RMK B TL170
  • 130550Z VRB02KT 9999 4000SW BKN007 BKN010 09/08 Q1017 RMK A TL170
  • 130520Z AUTO VRB02KT 9999 OVC007 08/08 Q1017
  • 130450Z AUTO 04004KT 9999 OVC006 08/08 Q1017

TAF TAF LSZS
Valide du 13 à 09h jusqu'au 13 à 18h UTC


130825Z 1309/1318 01004KT 9999 FEW020 SCT060 TX20/1313Z
BECMG 1310/1312 21012KT
PROB40
TEMPO 1313/1316 SHRA SCT060TCU
PROB30
TEMPO 1314/1316 TSRA SCT050CB
BECMG 1316/1318 VRB02KT CAVOK
ATIS : +41 81 834 93 24



MET'MAP, la Météo Aéronautique d'un coup d'oeil ! - Copyright ORBIFLY Décembre 2007 - Disclaimer

ORBIFLY MET'MAP TEAM :

Programmation & Développement : Alexandra Zaïnal
Sur une idée originale de : Baudouin d'Aumeries
Soutien technique & logistique : Manuel Goepfert
Assistance : Marc-Olivier Méhu




SOURCES & CREDITS :

   NOAA